Latest Weather Observations for Longerenong

IDV60801

Issued at 6:35 pm EST Tuesday 29 July 2014 (issued every 30 minutes, with the page automatically refreshed every 10 minutes)

About weather observations | Map of weather stations | Latest weather observations for VIC | Other Formats
Station Details ID: 079028 Name: LONGERENONG Lat: -36.67 Lon: 142.30 Height: 133.0 m
Data from the previous 72 hours. | See also: Recent months at Longerenong
Date/Time
EST
Temp
°C
App
Temp
°C
Dew
Point
Rel
Hum
%
Delta-T
°C
Wind Press
QNH
hPa
Press
MSL
hPa
Rain
since 9 am
mm
Dir
 
Spd
km/h
Gust
km/h
Spd
kts
Gust
kts
29/06:30pm 13.2 - - - - WNW 22 35 12 19 - - 0.6
29/06:00pm 13.8 - - - - WNW 30 43 16 23 - - 0.6
29/05:30pm 13.8 - - - - WNW 28 37 15 20 - - 0.4
29/05:00pm 14.4 - - - - WNW 32 46 17 25 - - 0.4
29/04:30pm 14.8 - - - - WNW 30 48 16 26 - - 0.4
29/04:29pm 14.7 - - - - WNW 28 48 15 26 - - 0.4
29/04:00pm 13.8 - - - - WNW 32 43 17 23 - - 0.2
29/03:30pm 15.4 - - - - NW 33 52 18 28 - - 0.0
29/03:25pm 15.7 - - - - NW 33 52 18 28 - - 0.0
29/03:00pm 15.1 - - - - NW 39 54 21 29 - - 0.0
29/02:30pm 15.4 - - - - NW 39 59 21 32 - - 0.0
29/02:00pm 15.2 - - - - WNW 39 59 21 32 - - 0.0
29/01:46pm 15.3 - - - - NW 35 56 19 30 - - 0.0
29/01:30pm 14.9 - - - - WNW 39 54 21 29 - - 0.0
29/01:04pm 15.6 - - - - NW 35 56 19 30 - - 0.0
29/01:00pm 15.4 - - - - NW 33 48 18 26 - - 0.0
29/12:30pm 14.9 - - - - WNW 39 50 21 27 - - 0.0
29/12:00pm 14.2 - - - - NW 32 44 17 24 - - 0.0
29/11:30am 13.3 - - - - NW 32 48 17 26 - - 0.0
29/11:00am 12.7 - - - - NW 33 44 18 24 - - 0.0
29/10:30am 12.3 - - - - NNW 35 46 19 25 - - 0.0
29/10:00am 11.6 - - - - NW 33 44 18 24 - - 0.0
29/09:30am 11.2 - - - - NW 28 37 15 20 - - 0.0
29/09:00am 10.3 - - - - NNW 26 35 14 19 - - 0.0
29/08:30am 9.4 - - - - NNW 28 37 15 20 - - 0.0
29/08:00am 8.9 - - - - NNW 26 35 14 19 - - 0.0
29/07:30am 8.7 - - - - NNW 26 32 14 17 - - 0.0
29/07:00am 8.7 - - - - NNW 24 32 13 17 - - 0.0
29/06:30am 8.3 - - - - NNW 20 26 11 14 - - 0.0
29/06:00am 7.7 - - - - NNW 17 20 9 11 - - 0.0
29/05:30am 7.7 - - - - NNW 17 22 9 12 - - 0.0
29/05:00am 8.0 - - - - NNW 20 26 11 14 - - 0.0
29/04:30am 7.3 - - - - NNW 17 22 9 12 - - 0.0
29/04:00am 7.1 - - - - NNW 17 20 9 11 - - 0.0
29/03:30am 7.4 - - - - NNW 19 24 10 13 - - 0.0
29/03:00am 7.2 - - - - NNW 17 22 9 12 - - 0.0
29/02:30am 6.9 - - - - NNW 17 22 9 12 - - 0.0
29/02:00am 6.8 - - - - NNW 17 22 9 12 - - 0.0
29/01:30am 6.7 - - - - NNW 17 22 9 12 - - 0.0
29/01:00am 7.0 - - - - NNW 17 20 9 11 - - 0.0
29/12:30am 7.3 - - - - NNW 17 22 9 12 - - 0.0
29/12:00am 7.4 - - - - NNW 15 19 8 10 - - 0.0
 
Date/Time
EST
Temp
°C
App
Temp
°C
Dew
Point
Rel
Hum
%
Delta-T
°C
Wind Press
QNH
hPa
Press
MSL
hPa
Rain
since 9 am
mm
Dir
 
Spd
km/h
Gust
km/h
Spd
kts
Gust
kts
28/11:30pm 7.6 - - - - NNW 13 17 7 9 - - 0.0
28/11:00pm 7.4 - - - - NNW 11 15 6 8 - - 0.0
28/10:30pm 7.6 - - - - NNW 13 15 7 8 - - 0.0
28/10:00pm 7.8 - - - - NNW 11 15 6 8 - - 0.0
28/09:30pm 7.9 - - - - NNW 13 19 7 10 - - 0.0
28/09:00pm 7.7 - - - - NNW 15 19 8 10 - - 0.0
28/08:30pm 7.0 - - - - NNW 11 13 6 7 - - 0.0
28/08:00pm 7.8 - - - - NNW 13 17 7 9 - - 0.0
28/07:30pm 6.9 - - - - NW 7 9 4 5 - - 0.0
28/07:00pm 7.8 - - - - NW 7 9 4 5 - - 0.0
28/06:30pm 8.6 - - - - NNW 9 11 5 6 - - 0.0
28/06:00pm 10.8 - - - - NW 13 17 7 9 - - 0.0
28/05:30pm 12.8 - - - - NNW 15 20 8 11 - - 0.0
28/05:00pm 14.6 - - - - NW 15 20 8 11 - - 0.0
28/04:30pm 15.5 - - - - NW 20 30 11 16 - - 0.0
28/04:00pm 16.1 - - - - WNW 22 32 12 17 - - 0.0
28/03:30pm 16.2 - - - - WNW 22 33 12 18 - - 0.0
28/03:00pm 16.0 - - - - WNW 24 32 13 17 - - 0.0
28/02:30pm 16.6 - - - - W 20 30 11 16 - - 0.0
28/02:00pm 15.8 - - - - WNW 20 30 11 16 - - 0.0
28/01:30pm 15.4 - - - - WNW 20 28 11 15 - - 0.0
28/01:00pm 14.9 - - - - WNW 19 33 10 18 - - 0.0
28/12:30pm 15.2 - - - - NW 19 26 10 14 - - 0.0
28/12:00pm 14.4 - - - - NW 19 26 10 14 - - 0.0
28/11:30am 13.4 - - - - NW 15 20 8 11 - - 0.0
28/11:00am 12.0 - - - - NNW 11 17 6 9 - - 0.0
28/10:30am 10.1 - - - - NW 15 20 8 11 - - 0.0
28/10:00am 9.8 - - - - NW 15 22 8 12 - - 0.0
28/09:30am 8.7 - - - - NNW 15 20 8 11 - - 0.0
28/09:00am 7.3 - - - - NNW 15 20 8 11 - - 0.0
28/08:30am 4.8 - - - - N 11 15 6 8 - - 0.0
28/08:00am 2.6 - - - - N 9 13 5 7 - - 0.0
28/07:30am 2.1 - - - - N 7 7 4 4 - - 0.0
28/07:00am 2.1 - - - - N 9 9 5 5 - - 0.0
28/06:30am 3.0 - - - - NNW 11 13 6 7 - - 0.0
28/06:00am 3.9 - - - - NNW 11 13 6 7 - - 0.0
28/05:30am 4.5 - - - - NNW 11 13 6 7 - - 0.0
28/05:00am 4.6 - - - - N 11 15 6 8 - - 0.0
28/04:30am 4.5 - - - - N 13 15 7 8 - - 0.0
28/04:00am 4.9 - - - - N 13 17 7 9 - - 0.0
28/03:30am 5.3 - - - - N 15 19 8 10 - - 0.0
28/03:00am 6.2 - - - - N 13 17 7 9 - - 0.0
28/02:30am 6.5 - - - - N 17 20 9 11 - - 0.0
28/02:00am 6.2 - - - - N 15 19 8 10 - - 0.0
28/01:30am 5.6 - - - - N 13 19 7 10 - - 0.0
28/01:00am 5.3 - - - - N 13 17 7 9 - - 0.0
28/12:30am 5.5 - - - - N 11 15 6 8 - - 0.0
28/12:00am 5.9 - - - - N 13 15 7 8 - - 0.0
 
Date/Time
EST
Temp
°C
App
Temp
°C
Dew
Point
Rel
Hum
%
Delta-T
°C
Wind Press
QNH
hPa
Press
MSL
hPa
Rain
since 9 am
mm
Dir
 
Spd
km/h
Gust
km/h
Spd
kts
Gust
kts
27/11:30pm 7.6 - - - - N 15 22 8 12 - - 0.0
27/11:00pm 8.0 - - - - N 19 24 10 13 - - 0.0
27/10:30pm 8.2 - - - - N 17 22 9 12 - - 0.0
27/10:00pm 8.3 - - - - N 15 22 8 12 - - 0.0
27/09:30pm 8.7 - - - - N 17 24 9 13 - - 0.0
27/09:00pm 8.7 - - - - N 15 19 8 10 - - 0.0
27/08:30pm 8.9 - - - - N 15 20 8 11 - - 0.0
27/08:00pm 8.9 - - - - N 15 19 8 10 - - 0.0
27/07:30pm 8.6 - - - - N 13 17 7 9 - - 0.0
27/07:00pm 9.3 - - - - N 13 17 7 9 - - 0.0
27/06:30pm 9.6 - - - - N 11 13 6 7 - - 0.0
27/06:00pm 10.3 - - - - N 11 13 6 7 - - 0.0
27/05:30pm 11.4 - - - - N 11 15 6 8 - - 0.0
27/05:00pm 12.8 - - - - N 11 15 6 8 - - 0.0
27/04:30pm 14.0 - - - - N 17 26 9 14 - - 0.0
27/04:00pm 14.4 - - - - NNW 19 28 10 15 - - 0.0
27/03:30pm 14.7 - - - - NNW 20 30 11 16 - - 0.0
27/03:00pm 14.7 - - - - NNW 20 30 11 16 - - 0.0
27/02:30pm 14.9 - - - - NNW 24 30 13 16 - - 0.0
27/02:00pm 14.6 - - - - NNW 22 32 12 17 - - 0.0
27/01:30pm 14.5 - - - - NNW 26 35 14 19 - - 0.0
27/01:00pm 14.4 - - - - NNW 22 35 12 19 - - 0.0
27/12:30pm 13.7 - - - - NNW 26 35 14 19 - - 0.0
27/12:00pm 13.5 - - - - NNW 24 37 13 20 - - 0.0
27/11:30am 13.2 - - - - NNW 20 32 11 17 - - 0.0
27/11:00am 11.9 - - - - N 22 30 12 16 - - 0.0
27/10:30am 10.8 - - - - N 20 30 11 16 - - 0.0
27/10:00am 9.9 - - - - NNW 11 15 6 8 - - 0.0
27/09:30am 7.8 - - - - N 6 11 3 6 - - 0.0
27/09:00am 4.9 - - - - N 6 11 3 6 - - 0.2
27/08:30am 3.4 - - - - CALM 0 4 0 2 - - 0.2
27/08:00am 2.1 - - - - CALM 0 0 0 0 - - 0.2
27/07:30am 1.7 - - - - CALM 0 0 0 0 - - 0.2
27/07:00am 1.9 - - - - ENE 2 4 1 2 - - 0.2
27/06:30am 1.7 - - - - NE 4 6 2 3 - - 0.2
27/06:00am 2.3 - - - - NE 4 6 2 3 - - 0.2
27/05:30am 2.1 - - - - NE 2 4 1 2 - - 0.2
27/05:00am 2.8 - - - - NNE 4 6 2 3 - - 0.2
27/04:30am 2.9 - - - - NE 4 7 2 4 - - 0.2
27/04:00am 2.0 - - - - NE 4 6 2 3 - - 0.2
27/03:30am 2.4 - - - - ENE 4 6 2 3 - - 0.2
27/03:00am 2.5 - - - - CALM 0 0 0 0 - - 0.2
27/02:30am 3.6 - - - - NNW 4 4 2 2 - - 0.2
27/02:00am 4.5 - - - - NNW 4 4 2 2 - - 0.2
27/01:30am 5.0 - - - - NNW 6 7 3 4 - - 0.2
27/01:00am 5.3 - - - - NW 6 7 3 4 - - 0.2
27/12:30am 5.6 - - - - NW 7 7 4 4 - - 0.2
27/12:00am 6.1 - - - - NNW 7 9 4 5 - - 0.2
 
Date/Time
EST
Temp
°C
App
Temp
°C
Dew
Point
Rel
Hum
%
Delta-T
°C
Wind Press
QNH
hPa
Press
MSL
hPa
Rain
since 9 am
mm
Dir
 
Spd
km/h
Gust
km/h
Spd
kts
Gust
kts
26/11:30pm 6.7 - - - - NNW 6 6 3 3 - - 0.2
26/11:00pm 6.9 - - - - NNW 6 6 3 3 - - 0.2
26/10:30pm 7.0 - - - - NNW 6 7 3 4 - - 0.2
26/10:00pm 7.3 - - - - NNW 7 9 4 5 - - 0.2
26/09:30pm 7.1 - - - - CALM 0 0 0 0 - - 0.2
26/09:00pm 7.3 - - - - CALM 0 2 0 1 - - 0.2
26/08:30pm 7.5 - - - - NW 6 7 3 4 - - 0.2
26/08:00pm 7.4 - - - - NW 7 7 4 4 - - 0.2
26/07:30pm 7.3 - - - - WNW 7 7 4 4 - - 0.2
26/07:00pm 9.0 - - - - W 4 6 2 3 - - 0.2

Other Formats:

Comma delimited format used in spreadsheet applications
http://www.bom.gov.au/fwo/IDV60801/IDV60801.95835.axf

JavaScript Object Notation format (JSON) in row-major order
http://www.bom.gov.au/fwo/IDV60801/IDV60801.95835.json